Аэропорт
Международный аэропорт Чхонджу (RKTU)

 RKTU / CJJ

Korea, Republic of
KR-43
Чхонджу
 36.71660, 127.49900  / 191 ft

 RKTU 201800Z 11003KT CAVOK 00/M02 Q1034
 TAF RKTU 201107Z 2012/2118 30006KT 9000 SCT030 TNM02/2021Z TX12/2106Z BECMG 20018KT 4800 BR SCT030 BKN200 BECMG 2102/2103 9999 NSW BECMG 2112/2113 24006KT 4800 -RA BR BKN030 BKN100

2020 © VATRUS division (Privacy Policy)